Time;durP1;ratioP1;P1;durP2;ratioP2;P2;SDS_P1;SDS_P2;PMS_P1;PMS_P2;Temp;Humidity;BMP_temperature;BMP_pressure;BME280_temperature;BME280_humidity;BME280_pressure;Samples;Min_cycle;Max_cycle;Signal;HPM_P1;HPM_P2
2022/03/05 04:01:40;;;;;;;16.90;12.60;;;-4.00;99.90;;;;;;5352648;23;20278;-76
2022/03/05 04:04:06;;;;;;;15.73;12.77;;;-4.00;99.90;;;;;;4962267;29;20249;-76
2022/03/05 04:08:41;;;;;;;20.03;13.17;;;-3.90;99.90;;;;;;4958153;29;20288;-75
2022/03/05 04:09:17;;;;;;;18.07;12.93;;;-3.90;99.90;;;;;;4959529;29;20177;-76
2022/03/05 04:11:43;;;;;;;18.50;13.40;;;-3.90;99.90;;;;;;4959407;28;20224;-76
2022/03/05 04:14:09;;;;;;;16.63;12.53;;;-4.00;99.90;;;;;;4961118;29;20218;-78
2022/03/05 04:16:35;;;;;;;19.10;13.93;;;-4.00;99.90;;;;;;4942754;29;20178;-78
2022/03/05 04:19:00;;;;;;;16.20;13.07;;;-4.00;99.90;;;;;;4941816;29;20630;-77
2022/03/05 04:21:26;;;;;;;16.70;13.63;;;-4.00;99.90;;;;;;4940666;29;20213;-78
2022/03/05 04:23:52;;;;;;;18.67;12.73;;;-4.10;99.90;;;;;;4942355;29;20202;-80
2022/03/05 04:26:17;;;;;;;15.97;11.90;;;-4.20;99.90;;;;;;4938036;29;20213;-79
2022/03/05 04:28:44;;;;;;;16.63;13.37;;;-4.20;99.90;;;;;;4937459;29;20190;-78
2022/03/05 04:31:09;;;;;;;15.40;12.27;;;-4.20;99.90;;;;;;4935414;29;20293;-80
2022/03/05 04:33:35;;;;;;;17.27;11.40;;;-4.10;99.90;;;;;;4939198;29;20214;-79
2022/03/05 04:36:01;;;;;;;16.43;12.63;;;-4.10;99.90;;;;;;4957628;29;20196;-80
2022/03/05 04:38:27;;;;;;;21.83;13.53;;;-4.00;99.90;;;;;;4958011;29;20196;-79
2022/03/05 04:40:52;;;;;;;18.93;13.70;;;-4.00;99.90;;;;;;4959960;28;20202;-79
2022/03/05 04:43:18;;;;;;;19.63;15.57;;;-4.00;99.90;;;;;;4956549;29;20193;-79
2022/03/05 04:45:44;;;;;;;18.17;14.13;;;-4.00;99.90;;;;;;4940689;29;20214;-78
2022/03/05 04:48:10;;;;;;;22.00;14.03;;;-4.10;99.90;;;;;;4939873;29;20205;-80
2022/03/05 04:50:35;;;;;;;16.70;13.63;;;-4.10;99.90;;;;;;4939059;29;20206;-78
2022/03/05 04:53:02;;;;;;;18.50;13.53;;;-4.00;99.90;;;;;;4934560;29;20595;-79
2022/03/05 04:55:29;;;;;;;16.80;12.63;;;-4.10;99.90;;;;;;4934933;29;20183;-78
2022/03/05 04:57:55;;;;;;;17.87;13.73;;;-4.00;99.90;;;;;;4934989;29;20785;-79
2022/03/05 05:00:20;;;;;;;19.70;13.77;;;-4.00;99.90;;;;;;4936103;29;20185;-78
2022/03/05 05:02:46;;;;;;;20.50;14.00;;;-4.00;99.90;;;;;;4939380;29;20197;-78
2022/03/05 05:05:14;;;;;;;16.10;13.63;;;-4.10;99.90;;;;;;4939979;29;20189;-81
2022/03/05 05:07:40;;;;;;;21.83;13.47;;;-4.10;99.90;;;;;;4938927;29;20210;-79
2022/03/05 05:10:06;;;;;;;20.97;13.50;;;-4.10;99.90;;;;;;4940022;29;20186;-78
2022/03/05 05:12:32;;;;;;;18.27;12.53;;;-4.20;99.90;;;;;;4938656;29;20222;-79
2022/03/05 05:14:57;;;;;;;18.17;13.83;;;-4.20;99.90;;;;;;4933545;29;20271;-79
2022/03/05 05:17:23;;;;;;;20.60;13.97;;;-4.20;99.90;;;;;;4932872;29;20187;-78
2022/03/05 05:19:49;;;;;;;17.07;13.60;;;-4.20;99.90;;;;;;4933709;29;20225;-79
2022/03/05 05:22:15;;;;;;;27.57;15.00;;;-4.30;99.90;;;;;;4933804;29;20215;-78
2022/03/05 05:24:40;;;;;;;15.93;13.00;;;-4.30;99.90;;;;;;4936383;29;20189;-79
2022/03/05 05:27:06;;;;;;;25.17;22.80;;;-4.30;99.90;;;;;;4934547;29;20226;-79
2022/03/05 05:29:34;;;;;;;18.93;13.70;;;-4.30;99.90;;;;;;4934470;29;20273;-79
2022/03/05 05:31:59;;;;;;;15.90;13.10;;;-4.30;99.90;;;;;;4933629;29;20194;-78
2022/03/05 05:34:25;;;;;;;16.40;13.13;;;-4.40;99.90;;;;;;4932831;29;20182;-78
2022/03/05 05:36:51;;;;;;;18.53;14.17;;;-4.40;99.90;;;;;;4932675;29;20213;-78
2022/03/05 05:39:17;;;;;;;18.87;14.43;;;-4.50;99.90;;;;;;4933073;29;20190;-78
2022/03/05 05:41:43;;;;;;;19.60;14.20;;;-4.50;99.90;;;;;;4939368;29;20206;-79
2022/03/05 05:44:11;;;;;;;19.00;13.13;;;-4.50;99.90;;;;;;4955590;28;20312;-79
2022/03/05 05:46:37;;;;;;;18.60;14.13;;;-4.40;99.90;;;;;;4956760;29;20217;-80
2022/03/05 05:49:03;;;;;;;24.23;14.67;;;-4.40;99.90;;;;;;4960124;29;20245;-80
2022/03/05 05:51:33;;;;;;;20.40;13.33;;;-4.40;99.90;;;;;;4962281;28;20202;-78
2022/03/05 05:53:59;;;;;;;19.73;14.50;;;-4.40;99.90;;;;;;4940939;29;20258;-79
2022/03/05 05:56:25;;;;;;;17.60;12.47;;;-4.40;99.90;;;;;;4938743;29;20216;-78
2022/03/05 05:58:51;;;;;;;18.77;12.87;;;-4.40;99.90;;;;;;4937888;29;20563;-78
2022/03/05 06:01:17;;;;;;;21.77;14.57;;;-4.50;99.90;;;;;;4935686;29;20218;-77
2022/03/05 06:03:45;;;;;;;21.10;14.23;;;-4.70;99.90;;;;;;4929278;29;20610;-78
2022/03/05 06:06:11;;;;;;;26.70;14.90;;;-4.70;99.90;;;;;;4933785;29;20217;-77
2022/03/05 06:08:38;;;;;;;21.23;13.47;;;-4.80;99.90;;;;;;4936471;29;20265;-78
2022/03/05 06:11:04;;;;;;;23.03;15.00;;;-4.70;99.90;;;;;;4936114;29;20214;-78
2022/03/05 06:13:29;;;;;;;21.60;15.67;;;-4.70;99.90;;;;;;4953447;29;20185;-77
2022/03/05 06:15:55;;;;;;;19.93;14.33;;;-4.50;99.90;;;;;;4954176;29;20217;-78
2022/03/05 06:18:21;;;;;;;20.30;16.80;;;-4.50;99.90;;;;;;4955135;29;20542;-77
2022/03/05 06:20:47;;;;;;;21.57;16.60;;;-4.30;99.90;;;;;;4954345;28;20198;-76
2022/03/05 06:23:13;;;;;;;22.97;13.97;;;-4.30;99.90;;;;;;4954869;29;20178;-70
2022/03/05 06:25:38;;;;;;;21.13;15.40;;;-4.30;99.90;;;;;;4955214;28;20272;-70
2022/03/05 06:28:05;;;;;;;19.33;14.87;;;-4.20;99.90;;;;;;4954493;29;20178;-69
2022/03/05 06:30:30;;;;;;;19.63;15.93;;;-4.20;99.90;;;;;;4953847;28;20196;-69
2022/03/05 06:32:56;;;;;;;26.97;16.90;;;-4.10;99.90;;;;;;4943013;29;20179;-70
2022/03/05 06:35:22;;;;;;;20.20;14.00;;;-4.10;99.90;;;;;;4936195;29;20202;-70
2022/03/05 06:37:48;;;;;;;18.47;14.33;;;-4.00;99.90;;;;;;4933820;29;20613;-70
2022/03/05 06:40:14;;;;;;;26.03;14.70;;;-3.90;99.90;;;;;;4935105;29;20186;-69
2022/03/05 06:42:41;;;;;;;23.70;15.53;;;-3.80;99.90;;;;;;4945165;29;20186;-70
2022/03/05 06:45:08;;;;;;;27.63;16.47;;;-3.70;99.90;;;;;;4954992;28;20186;-69
2022/03/05 06:47:35;;;;;;;24.43;16.20;;;-3.60;99.90;;;;;;4953347;29;20213;-70
2022/03/05 06:50:01;;;;;;;24.57;17.90;;;-3.50;99.90;;;;;;4954523;28;20182;-70
2022/03/05 06:52:26;;;;;;;29.27;16.97;;;-3.30;99.90;;;;;;4945120;28;20210;-69
2022/03/05 06:54:52;;;;;;;23.70;18.87;;;-3.20;99.90;;;;;;4934455;29;20209;-70
2022/03/05 06:57:18;;;;;;;20.77;17.63;;;-3.00;99.90;;;;;;4935056;29;20187;-70
2022/03/05 06:59:44;;;;;;;23.13;14.67;;;-2.90;99.90;;;;;;4935737;29;20560;-70
2022/03/05 07:02:09;;;;;;;30.63;17.43;;;-2.80;99.90;;;;;;4937727;29;20220;-70
2022/03/05 07:04:35;;;;;;;27.10;17.83;;;-2.60;99.90;;;;;;4943524;29;20188;-70
2022/03/05 07:07:01;;;;;;;23.60;17.83;;;-2.40;99.90;;;;;;4954515;29;20213;-70
2022/03/05 07:09:27;;;;;;;25.63;14.93;;;-2.20;99.90;;;;;;4954864;29;20182;-70
2022/03/05 07:11:52;;;;;;;25.13;22.30;;;-2.00;99.90;;;;;;4952977;28;20210;-69
2022/03/05 07:14:18;;;;;;;32.00;25.33;;;-1.60;99.90;;;;;;4948601;29;20179;-64
2022/03/05 07:16:44;;;;;;;20.00;13.70;;;-1.10;99.90;;;;;;4935226;29;20217;-64
2022/03/05 07:19:10;;;;;;;26.30;17.13;;;-0.40;99.90;;;;;;4935195;29;20574;-69
2022/03/05 07:21:35;;;;;;;25.73;16.47;;;0.10;99.90;;;;;;4935837;29;20228;-69
2022/03/05 07:24:02;;;;;;;27.77;18.23;;;0.60;99.90;;;;;;4937932;29;20181;-69
2022/03/05 07:26:28;;;;;;;28.97;16.47;;;1.20;99.90;;;;;;4941859;28;20289;-69
2022/03/05 07:28:53;;;;;;;27.50;16.67;;;1.80;99.90;;;;;;4933825;29;20896;-69
2022/03/05 07:31:19;;;;;;;22.87;16.07;;;2.20;99.90;;;;;;4934841;29;20202;-69
2022/03/05 07:33:45;;;;;;;21.67;14.87;;;2.60;99.90;;;;;;4935986;29;20178;-69
2022/03/05 07:36:11;;;;;;;19.37;14.43;;;2.90;99.90;;;;;;4954186;29;20185;-69
2022/03/05 07:38:40;;;;;;;24.53;15.00;;;3.30;99.90;;;;;;4953917;29;20178;-69
2022/03/05 07:41:07;;;;;;;18.50;14.67;;;3.50;99.90;;;;;;4954135;28;20209;-69
2022/03/05 07:43:32;;;;;;;20.23;14.53;;;3.70;99.90;;;;;;4952895;29;20185;-69
2022/03/05 07:45:58;;;;;;;23.40;16.70;;;3.80;99.90;;;;;;4935444;29;20217;-69
2022/03/05 07:48:25;;;;;;;21.00;14.47;;;4.10;99.90;;;;;;4933822;29;20190;-69
2022/03/05 07:50:51;;;;;;;19.90;14.13;;;4.40;99.90;;;;;;4933842;29;20261;-69
2022/03/05 07:53:17;;;;;;;20.60;14.63;;;4.60;99.90;;;;;;4934945;29;20222;-70
2022/03/05 07:55:43;;;;;;;21.67;15.97;;;4.70;99.90;;;;;;4950941;29;20196;-68
2022/03/05 07:58:09;;;;;;;26.70;19.80;;;4.80;99.90;;;;;;4953570;29;20294;-70
2022/03/05 08:00:35;;;;;;;21.87;16.00;;;4.80;99.90;;;;;;4952509;28;20214;-68
2022/03/05 08:03:01;;;;;;;22.90;16.43;;;4.90;99.90;;;;;;4953805;29;20186;-68
2022/03/05 08:05:27;;;;;;;22.47;15.33;;;5.00;99.90;;;;;;4939626;29;20200;-68
2022/03/05 08:07:54;;;;;;;19.73;14.93;;;4.90;99.90;;;;;;4934323;29;20217;-68
2022/03/05 08:10:20;;;;;;;24.30;16.20;;;5.00;99.90;;;;;;4934436;29;20187;-68
2022/03/05 08:12:46;;;;;;;25.30;16.87;;;5.30;99.90;;;;;;4933610;29;20185;-68
2022/03/05 08:15:12;;;;;;;21.30;15.47;;;5.60;99.90;;;;;;4934504;29;20601;-68
2022/03/05 08:17:56;;;;;;;22.53;16.07;;;5.70;99.90;;;;;;4927599;29;20781;-68
2022/03/05 08:20:24;;;;;;;24.33;14.63;;;6.00;99.90;;;;;;4924865;29;20186;-68
2022/03/05 08:22:50;;;;;;;18.90;14.77;;;6.20;99.90;;;;;;4932928;29;20738;-70
2022/03/05 08:25:16;;;;;;;21.63;16.37;;;6.40;99.80;;;;;;4934130;29;20565;-68
2022/03/05 08:27:42;;;;;;;20.63;15.40;;;6.60;99.50;;;;;;4933597;29;20214;-68
2022/03/05 08:30:09;;;;;;;24.97;15.83;;;6.80;98.20;;;;;;4933723;29;20189;-70
2022/03/05 08:32:35;;;;;;;23.40;14.93;;;6.90;97.80;;;;;;4933958;29;20319;-70
2022/03/05 08:35:01;;;;;;;23.83;16.87;;;6.90;97.20;;;;;;4943890;29;20241;-70
2022/03/05 08:37:27;;;;;;;21.83;16.90;;;6.60;98.00;;;;;;4952988;28;20186;-70
2022/03/05 08:39:54;;;;;;;20.03;17.23;;;6.60;97.70;;;;;;4937188;28;20261;-71
2022/03/05 08:42:20;;;;;;;23.27;17.10;;;6.80;97.60;;;;;;4934028;29;20212;-68
2022/03/05 08:44:47;;;;;;;24.80;18.07;;;7.20;97.10;;;;;;4933190;29;20189;-70
2022/03/05 08:47:12;;;;;;;21.57;17.20;;;7.60;95.80;;;;;;4933707;29;20592;-69
2022/03/05 08:49:38;;;;;;;20.60;16.43;;;7.90;94.90;;;;;;4934107;29;20217;-71
2022/03/05 08:52:05;;;;;;;19.97;16.03;;;7.70;94.60;;;;;;4921658;29;20239;-73
2022/03/05 08:54:31;;;;;;;20.70;16.37;;;7.90;94.20;;;;;;4926922;29;20662;-73
2022/03/05 08:56:57;;;;;;;20.90;16.30;;;7.90;93.80;;;;;;4952348;29;20221;-73
2022/03/05 08:59:23;;;;;;;22.70;16.90;;;7.60;94.20;;;;;;4952558;29;20182;-73
2022/03/05 09:01:49;;;;;;;22.23;15.03;;;7.80;94.50;;;;;;4952680;28;20228;-72
2022/03/05 09:04:15;;;;;;;19.77;15.07;;;7.90;93.10;;;;;;4941191;28;20277;-73
2022/03/05 09:06:40;;;;;;;20.60;14.10;;;7.60;93.10;;;;;;4932171;29;20300;-73
2022/03/05 09:09:07;;;;;;;20.33;15.27;;;7.80;93.10;;;;;;4931858;29;20217;-73
2022/03/05 09:11:37;;;;;;;23.80;15.10;;;7.70;92.30;;;;;;4931796;29;20207;-73
2022/03/05 09:14:04;;;;;;;20.67;15.43;;;7.80;91.70;;;;;;4932526;29;20182;-72
2022/03/05 09:16:30;;;;;;;21.67;14.80;;;7.90;91.60;;;;;;4952701;28;20252;-72
2022/03/05 09:18:56;;;;;;;19.17;14.73;;;8.20;90.80;;;;;;4947854;28;20182;-70
2022/03/05 09:21:22;;;;;;;20.67;14.30;;;8.30;90.30;;;;;;4936295;29;20301;-73
2022/03/05 09:23:47;;;;;;;20.87;15.23;;;8.20;90.40;;;;;;4952201;29;20233;-74
2022/03/05 09:26:14;;;;;;;19.63;14.23;;;8.60;89.00;;;;;;4955437;28;20300;-73
2022/03/05 09:28:41;;;;;;;19.63;13.10;;;8.90;87.20;;;;;;4954832;29;20336;-73
2022/03/05 09:31:06;;;;;;;17.00;12.73;;;8.80;84.60;;;;;;4947414;29;20202;-73
2022/03/05 09:33:32;;;;;;;19.23;13.73;;;8.60;84.20;;;;;;4937467;29;20809;-73
2022/03/05 09:35:58;;;;;;;17.87;12.90;;;8.60;84.40;;;;;;4937583;29;20208;-73
2022/03/05 09:38:24;;;;;;;15.60;12.43;;;8.70;83.10;;;;;;4937084;29;20666;-73
2022/03/05 09:40:50;;;;;;;16.50;12.03;;;8.90;79.20;;;;;;4942934;28;20693;-73
2022/03/05 09:43:20;;;;;;;14.53;10.83;;;9.00;78.70;;;;;;4955295;29;20194;-73
2022/03/05 09:45:46;;;;;;;15.80;12.57;;;9.40;76.80;;;;;;4955148;29;20277;-74
2022/03/05 09:48:14;;;;;;;14.43;12.30;;;9.70;75.20;;;;;;4950099;28;20265;-73
2022/03/05 09:50:41;;;;;;;15.17;12.27;;;9.60;72.00;;;;;;4937863;29;20293;-73
2022/03/05 09:53:07;;;;;;;11.53;10.27;;;9.40;73.00;;;;;;4938512;29;20272;-73
2022/03/05 09:55:32;;;;;;;16.10;11.33;;;9.80;72.80;;;;;;4938767;29;20646;-73
2022/03/05 09:57:59;;;;;;;14.07;11.50;;;9.80;72.80;;;;;;4940090;29;20192;-73
2022/03/05 10:00:25;;;;;;;15.63;11.83;;;9.80;72.10;;;;;;4955815;28;20219;-73
2022/03/05 10:02:51;;;;;;;13.53;10.50;;;9.90;69.80;;;;;;4958082;28;20190;-73
2022/03/05 10:05:20;;;;;;;14.37;11.17;;;10.50;67.20;;;;;;4956625;29;20552;-72
2022/03/05 10:08:08;;;;;;;12.97;9.53;;;10.40;65.80;;;;;;4953632;28;20305;-72
2022/03/05 10:10:53;;;;;;;13.47;11.30;;;9.70;66.40;;;;;;4936914;29;20237;-72
2022/03/05 10:13:26;;;;;;;16.97;12.40;;;9.90;66.50;;;;;;4936801;29;20297;-72
2022/03/05 10:15:55;;;;;;;15.17;11.70;;;10.10;65.20;;;;;;4957118;23;20339;-74
2022/03/05 10:18:37;;;;;;;13.67;11.43;;;10.00;65.40;;;;;;4935685;29;20205;-74
2022/03/05 10:21:06;;;;;;;16.77;12.53;;;10.40;66.40;;;;;;4936680;29;20217;-74
2022/03/05 10:23:36;;;;;;;13.20;11.80;;;11.20;63.40;;;;;;4935751;29;20262;-74
2022/03/05 10:26:05;;;;;;;13.93;11.87;;;12.00;60.90;;;;;;4919409;29;20688;-74
2022/03/05 10:28:31;;;;;;;16.53;12.57;;;12.40;58.30;;;;;;4916866;29;20179;-75
2022/03/05 10:31:03;;;;;;;14.87;11.83;;;12.60;57.90;;;;;;4916283;29;20662;-74
2022/03/05 10:33:41;;;;;;;14.80;12.53;;;13.10;55.50;;;;;;4916490;29;20194;-74
2022/03/05 10:36:19;;;;;;;9.73;8.53;;;13.00;54.90;;;;;;4917309;29;20211;-74
2022/03/05 10:38:51;;;;;;;13.97;10.97;;;12.60;52.70;;;;;;4916900;29;20194;-74
2022/03/05 10:41:36;;;;;;;11.37;8.57;;;11.40;52.90;;;;;;4917139;29;20675;-74
2022/03/05 10:44:15;;;;;;;9.60;8.60;;;11.00;53.40;;;;;;4917295;29;20195;-74
2022/03/05 10:46:53;;;;;;;10.63;9.10;;;10.40;54.90;;;;;;4918386;29;20580;-73
2022/03/05 10:49:27;;;;;;;9.07;7.53;;;10.00;54.90;;;;;;4915958;29;20187;-74
2022/03/05 10:52:02;;;;;;;12.67;9.87;;;9.00;55.80;;;;;;4916118;29;20189;-74
2022/03/05 10:54:39;;;;;;;12.13;9.60;;;9.70;56.90;;;;;;4916207;29;20203;-75
2022/03/05 10:57:15;;;;;;;11.63;9.00;;;9.10;56.30;;;;;;4916983;29;20191;-74
2022/03/05 10:59:46;;;;;;;11.70;9.07;;;8.50;57.50;;;;;;4916055;29;20179;-74
2022/03/05 11:02:14;;;;;;;11.83;9.30;;;8.50;58.10;;;;;;4916146;29;20215;-74
2022/03/05 11:04:42;;;;;;;7.30;6.83;;;8.80;58.40;;;;;;4916974;29;20203;-74
2022/03/05 11:07:09;;;;;;;11.37;8.33;;;9.60;56.00;;;;;;4917389;29;20271;-75
2022/03/05 11:09:37;;;;;;;9.60;8.70;;;10.40;54.10;;;;;;4916428;29;20640;-74
2022/03/05 11:12:04;;;;;;;9.57;8.63;;;11.00;52.40;;;;;;4915673;29;20243;-73
2022/03/05 11:14:30;;;;;;;10.33;9.33;;;11.20;52.00;;;;;;4915664;29;20278;-73
2022/03/05 11:16:56;;;;;;;12.07;10.17;;;11.60;51.60;;;;;;4916089;29;20191;-73
2022/03/05 11:19:24;;;;;;;9.60;8.63;;;11.50;50.50;;;;;;4916668;29;20594;-73
2022/03/05 11:21:49;;;;;;;8.33;7.63;;;11.70;49.80;;;;;;4916739;29;20190;-74
2022/03/05 11:24:18;;;;;;;10.03;9.00;;;11.30;49.30;;;;;;4916738;29;20788;-74
2022/03/05 11:26:51;;;;;;;9.53;8.50;;;11.10;50.70;;;;;;4917058;29;20388;-74
2022/03/05 11:29:24;;;;;;;10.07;9.03;;;11.60;49.20;;;;;;4915973;29;20266;-73
2022/03/05 11:31:50;;;;;;;8.43;7.73;;;10.40;50.20;;;;;;4917612;29;20183;-73
2022/03/05 11:34:18;;;;;;;9.03;8.10;;;10.70;50.80;;;;;;4924583;29;20232;-73
2022/03/05 11:36:46;;;;;;;7.43;6.73;;;10.80;49.80;;;;;;4927619;29;20187;-73
2022/03/05 11:39:16;;;;;;;9.73;8.77;;;11.30;48.60;;;;;;4917335;29;20561;-74
2022/03/05 11:42:03;;;;;;;8.07;7.40;;;11.80;48.90;;;;;;4915939;29;20197;-73
2022/03/05 11:44:36;;;;;;;11.03;7.17;;;12.40;46.40;;;;;;4916456;29;20629;-73
2022/03/05 11:47:22;;;;;;;8.13;7.33;;;12.50;45.00;;;;;;4915983;29;20214;-76
2022/03/05 11:49:58;;;;;;;9.67;8.70;;;12.50;46.00;;;;;;4916969;29;20274;-74
2022/03/05 11:52:39;;;;;;;11.00;8.37;;;13.20;44.70;;;;;;4914960;29;20805;-73
2022/03/05 11:55:10;;;;;;;7.83;7.13;;;14.50;43.60;;;;;;4916287;29;20620;-73
2022/03/05 11:57:37;;;;;;;9.13;7.80;;;14.30;42.90;;;;;;4914426;29;20246;-73
2022/03/05 12:00:04;;;;;;;8.97;7.97;;;13.70;43.90;;;;;;4915956;29;20186;-74
2022/03/05 12:02:44;;;;;;;8.70;7.90;;;13.40;43.40;;;;;;4915994;29;20210;-74
2022/03/05 12:05:30;;;;;;;8.90;8.03;;;14.00;43.70;;;;;;4915886;29;20213;-74
2022/03/05 12:07:55;;;;;;;9.90;8.10;;;13.80;43.90;;;;;;4914998;29;20222;-74
2022/03/05 12:10:21;;;;;;;9.50;8.60;;;13.50;42.90;;;;;;4915649;29;20182;-74
2022/03/05 12:12:54;;;;;;;8.90;8.10;;;12.80;43.70;;;;;;4915704;29;20246;-74
2022/03/05 12:15:39;;;;;;;8.40;7.70;;;13.00;43.60;;;;;;4915429;29;20265;-73
2022/03/05 12:18:06;;;;;;;12.40;9.50;;;13.00;43.30;;;;;;4914840;29;20189;-74
2022/03/05 12:20:38;;;;;;;9.13;8.23;;;12.10;45.40;;;;;;4915810;29;20659;-74
2022/03/05 12:23:10;;;;;;;10.50;9.40;;;13.30;44.90;;;;;;4915251;29;20722;-74
2022/03/05 12:25:38;;;;;;;10.77;9.67;;;14.30;44.00;;;;;;4914000;29;20214;-74
2022/03/05 12:28:06;;;;;;;8.87;7.97;;;15.40;42.90;;;;;;4914869;29;20210;-74
2022/03/05 12:30:38;;;;;;;11.27;8.53;;;16.00;41.10;;;;;;4915713;29;20233;-74
2022/03/05 12:33:13;;;;;;;9.00;8.07;;;16.20;39.60;;;;;;4915326;29;20187;-74
2022/03/05 12:35:42;;;;;;;10.50;8.67;;;15.50;39.90;;;;;;4913919;29;20231;-74
2022/03/05 12:38:09;;;;;;;8.57;7.70;;;15.10;40.60;;;;;;4914874;29;20182;-74
2022/03/05 12:40:36;;;;;;;12.60;9.83;;;14.40;41.40;;;;;;4915579;29;20187;-75
2022/03/05 12:43:05;;;;;;;9.67;8.73;;;13.80;43.10;;;;;;4917553;29;20667;-74
2022/03/05 12:45:34;;;;;;;12.80;11.17;;;13.80;42.90;;;;;;4915262;29;20203;-75
2022/03/05 12:48:07;;;;;;;12.93;10.57;;;13.60;42.90;;;;;;4914476;29;20210;-74
2022/03/05 12:50:55;;;;;;;14.27;11.13;;;13.90;42.90;;;;;;4915056;29;20197;-73
2022/03/05 12:53:22;;;;;;;11.00;8.53;;;13.50;43.00;;;;;;4914261;29;20552;-74
2022/03/05 12:55:55;;;;;;;9.30;8.33;;;14.40;41.90;;;;;;4915175;29;20815;-74
2022/03/05 12:58:21;;;;;;;10.27;9.27;;;14.20;41.40;;;;;;4914210;29;20189;-74
2022/03/05 13:00:52;;;;;;;9.07;8.23;;;14.00;41.10;;;;;;4914892;29;20171;-74
2022/03/05 13:03:19;;;;;;;9.67;8.70;;;12.40;43.50;;;;;;4915082;29;20187;-74
2022/03/05 13:05:47;;;;;;;14.13;10.70;;;11.70;44.80;;;;;;4914743;29;20269;-74
2022/03/05 13:08:27;;;;;;;13.23;8.63;;;12.30;45.40;;;;;;4914165;29;20653;-74
2022/03/05 13:11:03;;;;;;;9.83;8.83;;;14.40;42.40;;;;;;4914896;29;20189;-74
2022/03/05 13:13:30;;;;;;;9.93;8.93;;;15.10;40.00;;;;;;4914854;29;20566;-74
2022/03/05 13:15:57;;;;;;;9.60;8.60;;;14.50;39.70;;;;;;4914903;29;20329;-74
2022/03/05 13:18:22;;;;;;;10.30;9.30;;;14.50;40.10;;;;;;4914106;29;20723;-74
2022/03/05 13:20:48;;;;;;;11.23;9.73;;;14.90;40.40;;;;;;4913423;29;20283;-74
2022/03/05 13:23:16;;;;;;;8.97;8.07;;;15.70;38.60;;;;;;4907798;29;20865;-74
2022/03/05 13:25:47;;;;;;;9.70;7.50;;;16.60;38.00;;;;;;4908179;29;20864;-76
2022/03/05 13:28:26;;;;;;;9.03;8.13;;;16.30;36.70;;;;;;4915601;29;20184;-71
2022/03/05 13:30:54;;;;;;;7.73;7.00;;;16.30;37.20;;;;;;4894846;29;20188;-68
2022/03/05 13:33:45;;;;;;;9.17;8.27;;;15.60;37.20;;;;;;4895713;29;20212;-72
2022/03/05 13:36:23;;;;;;;9.30;8.37;;;14.90;38.50;;;;;;4895566;29;20683;-76
2022/03/05 13:39:02;;;;;;;7.70;6.90;;;15.90;37.70;;;;;;4912967;29;20214;-74
2022/03/05 13:41:30;;;;;;;8.03;7.23;;;15.50;37.40;;;;;;4899766;29;20551;-74
2022/03/05 13:43:57;;;;;;;8.30;7.50;;;14.40;38.40;;;;;;4895433;29;20526;-73
2022/03/05 13:46:26;;;;;;;8.93;8.07;;;14.30;38.40;;;;;;4905690;29;20781;-74
2022/03/05 13:48:57;;;;;;;8.57;7.83;;;13.50;38.80;;;;;;4905632;29;20298;-74
2022/03/05 13:51:32;;;;;;;8.77;8.07;;;13.00;40.40;;;;;;4893932;29;20184;-73
2022/03/05 13:54:00;;;;;;;9.90;8.90;;;13.30;40.60;;;;;;4909488;29;20191;-73
2022/03/05 13:56:38;;;;;;;10.20;8.90;;;12.80;40.80;;;;;;4908357;29;20207;-73
2022/03/05 13:59:04;;;;;;;9.73;8.67;;;11.60;42.00;;;;;;4895362;29;20583;-73
2022/03/05 14:01:36;;;;;;;9.30;8.40;;;12.20;43.90;;;;;;4894576;29;20207;-74
2022/03/05 14:04:19;;;;;;;9.43;8.63;;;13.60;41.60;;;;;;4895065;29;20826;-74
2022/03/05 14:06:47;;;;;;;10.30;9.03;;;12.80;40.80;;;;;;4899939;29;20219;-73
2022/03/05 14:09:25;;;;;;;10.30;8.60;;;12.30;42.00;;;;;;4916633;29;20565;-73
2022/03/05 14:12:05;;;;;;;11.03;8.43;;;10.90;44.00;;;;;;4917889;29;20682;-73
2022/03/05 14:14:37;;;;;;;10.17;9.27;;;10.30;46.00;;;;;;4917661;29;20724;-73
2022/03/05 14:17:03;;;;;;;10.03;9.10;;;10.10;46.10;;;;;;4917424;29;20667;-73
2022/03/05 14:19:30;;;;;;;8.10;7.40;;;9.70;46.80;;;;;;4917550;29;20197;-73
2022/03/05 14:22:10;;;;;;;7.67;6.87;;;10.10;46.20;;;;;;4917548;29;20571;-73
2022/03/05 14:24:40;;;;;;;9.20;8.27;;;9.80;45.90;;;;;;4917532;29;20249;-73
2022/03/05 14:27:10;;;;;;;9.50;8.53;;;9.60;46.90;;;;;;4917075;29;20207;-73
2022/03/05 14:29:37;;;;;;;8.33;7.53;;;9.70;46.60;;;;;;4917704;29;20187;-74
2022/03/05 14:32:04;;;;;;;8.93;8.03;;;10.50;46.10;;;;;;4916387;29;20190;-73
2022/03/05 14:34:30;;;;;;;8.27;7.50;;;10.90;45.00;;;;;;4916125;29;20235;-73
2022/03/05 14:36:55;;;;;;;8.73;7.90;;;10.70;44.30;;;;;;4918982;29;20311;-74
2022/03/05 14:39:21;;;;;;;10.23;9.23;;;10.20;45.10;;;;;;4917903;29;20194;-72
2022/03/05 14:41:47;;;;;;;8.40;7.70;;;9.70;47.30;;;;;;4917565;29;20179;-72
2022/03/05 14:44:13;;;;;;;10.53;9.20;;;9.50;47.70;;;;;;4917703;29;20207;-73
2022/03/05 14:46:40;;;;;;;9.33;8.43;;;9.40;48.60;;;;;;4917096;29;20235;-72
2022/03/05 14:49:06;;;;;;;8.20;7.50;;;9.50;48.40;;;;;;4915806;29;20196;-74
2022/03/05 14:51:32;;;;;;;8.53;7.73;;;10.20;48.10;;;;;;4917127;29;20632;-74
2022/03/05 14:53:58;;;;;;;10.13;8.53;;;10.60;46.80;;;;;;4917511;29;20265;-72
2022/03/05 14:56:24;;;;;;;9.83;8.83;;;10.50;46.60;;;;;;4916984;29;20187;-73
2022/03/05 14:58:49;;;;;;;8.30;7.50;;;10.50;46.70;;;;;;4915334;29;20187;-73
2022/03/05 15:01:15;;;;;;;8.10;7.33;;;10.70;46.00;;;;;;4916962;29;20278;-74
2022/03/05 15:03:41;;;;;;;10.37;9.37;;;10.60;46.20;;;;;;4916889;29;20190;-73
2022/03/05 15:06:06;;;;;;;9.87;8.87;;;10.00;46.70;;;;;;4916712;29;20310;-74
2022/03/05 15:08:32;;;;;;;8.83;8.00;;;9.80;47.10;;;;;;4916469;29;20560;-73
2022/03/05 15:10:58;;;;;;;7.77;7.13;;;9.70;47.30;;;;;;4916954;29;20669;-73
2022/03/05 15:13:23;;;;;;;9.83;8.50;;;9.50;47.80;;;;;;4917013;29;20277;-73
2022/03/05 15:15:49;;;;;;;7.93;7.27;;;9.00;48.50;;;;;;4915708;29;20242;-73
2022/03/05 15:18:15;;;;;;;8.17;7.33;;;8.70;48.90;;;;;;4916288;29;20605;-73
2022/03/05 15:20:42;;;;;;;9.57;8.10;;;8.40;49.70;;;;;;4916783;29;20567;-73
2022/03/05 15:23:09;;;;;;;11.00;9.73;;;8.10;50.00;;;;;;4915033;29;20191;-72
2022/03/05 15:25:35;;;;;;;11.33;10.13;;;7.90;51.20;;;;;;4900239;29;20235;-73
2022/03/05 15:28:01;;;;;;;8.80;7.90;;;7.80;51.60;;;;;;4914449;29;20223;-74
2022/03/05 15:30:27;;;;;;;11.13;10.03;;;7.70;51.40;;;;;;4916259;29;20175;-72
2022/03/05 15:32:52;;;;;;;10.47;9.13;;;7.90;51.80;;;;;;4914986;29;20198;-72
2022/03/05 15:35:18;;;;;;;9.77;8.77;;;7.90;52.00;;;;;;4916147;29;20588;-74
2022/03/05 15:37:46;;;;;;;8.30;7.60;;;7.80;51.80;;;;;;4915360;29;20190;-73
2022/03/05 15:40:11;;;;;;;10.20;8.93;;;7.40;52.10;;;;;;4895915;29;20184;-74
2022/03/05 15:42:37;;;;;;;10.67;9.33;;;7.20;52.80;;;;;;4898974;29;20270;-75
2022/03/05 15:45:04;;;;;;;9.43;8.57;;;7.30;52.90;;;;;;4914762;29;20206;-72
2022/03/05 15:47:29;;;;;;;9.67;8.83;;;7.60;52.30;;;;;;4915152;29;20219;-72
2022/03/05 15:49:55;;;;;;;10.47;9.50;;;7.40;52.30;;;;;;4916034;29;20187;-73
2022/03/05 15:52:21;;;;;;;9.47;8.60;;;7.20;52.50;;;;;;4915066;29;20191;-73
2022/03/05 15:54:47;;;;;;;9.67;8.63;;;7.60;52.60;;;;;;4916038;29;20235;-73
2022/03/05 15:57:13;;;;;;;9.20;8.17;;;7.50;51.80;;;;;;4915436;29;20187;-73
2022/03/05 15:59:38;;;;;;;9.37;8.50;;;7.40;52.70;;;;;;4915775;29;20210;-73
2022/03/05 16:02:05;;;;;;;10.70;9.27;;;7.20;53.10;;;;;;4915959;29;20274;-72
2022/03/05 16:04:30;;;;;;;11.97;9.97;;;7.00;53.70;;;;;;4914840;29;20709;-73
2022/03/05 16:06:56;;;;;;;11.60;8.30;;;6.90;54.10;;;;;;4914404;29;20273;-74
2022/03/05 16:09:22;;;;;;;11.27;10.17;;;7.00;54.50;;;;;;4915270;29;20297;-74
2022/03/05 16:11:48;;;;;;;11.63;10.43;;;7.10;54.60;;;;;;4915698;29;20179;-73
2022/03/05 16:16:43;;;;;;;11.60;8.20;;;7.50;53.30;;;;;;4900353;29;20363;-74
2022/03/05 16:19:09;;;;;;;7.50;6.83;;;7.10;54.10;;;;;;4911414;29;20266;-73
2022/03/05 16:21:35;;;;;;;9.40;8.60;;;6.70;55.30;;;;;;4918455;29;20194;-74
2022/03/05 16:24:01;;;;;;;11.50;10.30;;;6.70;55.90;;;;;;4916645;29;20179;-73
2022/03/05 16:26:28;;;;;;;12.73;10.27;;;7.00;55.50;;;;;;4894650;29;20707;-73
2022/03/05 16:28:54;;;;;;;11.90;9.33;;;7.40;55.20;;;;;;4886610;29;20176;-73
2022/03/05 16:31:19;;;;;;;8.83;8.03;;;7.60;54.80;;;;;;4876815;29;20721;-74
2022/03/05 16:33:46;;;;;;;9.67;8.60;;;7.30;54.70;;;;;;4877972;29;20180;-73
2022/03/05 16:36:12;;;;;;;11.67;9.17;;;6.90;55.50;;;;;;4876891;29;20212;-73
2022/03/05 16:38:39;;;;;;;11.20;9.90;;;6.70;56.30;;;;;;4877694;29;20203;-73
2022/03/05 16:41:06;;;;;;;9.37;7.97;;;6.50;56.70;;;;;;4888267;29;20187;-73
2022/03/05 16:43:34;;;;;;;12.80;9.00;;;6.20;56.90;;;;;;4910898;29;20745;-74
2022/03/05 16:46:01;;;;;;;10.13;9.00;;;5.80;57.80;;;;;;4911201;29;20684;-75